• Join FlightAware (Why Join?)
  • Login
  • US Flag 
06:57PM EST


 

Airport Tracker/Info


-or-


 

Live Flight TrackerFlight Track Log ✈ C-GFSG ✈ 26-Jun-2013 ✈ CJF3 - CYVC

Flight Track Log - Related Links

Times and Time Zones

All times are in EDT time to prevent confusion due to time zone crossing. See the C-GFSG flight status page for this flight to view local times or setup timezone preferences in your user account.

Time Position Orientation Groundspeed Altitude Reporting Facility
EDT Latitude Longitude Course Direction KTS MPH feet Rate Location/Type
04:50PM 55.4500 -107.6667 105° East 180 207 10,800  Level Winnipeg Center
04:51PM 55.4333 -107.5833 109° East 190 219 12,300 1,080 Climbing Winnipeg Center
04:52PM 55.4333 -107.4833 90° East 210 242 13,000 300 Climbing Winnipeg Center
04:53PM 55.4000 -107.3667 117° Southeast 250 288 13,000  Level Winnipeg Center
04:54PM 55.4000 -107.2500 90° East 260 299 13,000  Level Winnipeg Center
04:55PM 55.3667 -107.1167 114° Southeast 270 311 13,000  Level Winnipeg Center
04:56PM 55.4069 -107.3279 105° East  Level FlightAware Approximate
04:56PM 55.3667 -107.0000 90° East 270 311 13,000  Level Winnipeg Center
04:57PM 55.3500 -106.8500 101° East 270 311 13,000  Level Winnipeg Center
04:58PM 55.3333 -106.7167 102° East 270 311 13,000  Level Winnipeg Center
04:59PM 55.3167 -106.6000 104° East 270 311 13,000  Level Winnipeg Center
05:00PM 55.2833 -106.4833 117° Southeast 270 311 13,000 -660 Level Winnipeg Center
05:01PM 55.2833 -106.3333 90° East 280 322 11,700 -1,380 Descending Winnipeg Center
05:02PM 55.2667 -106.2000 102° East 290 334 10,300 -1,380 Descending Winnipeg Center
05:03PM 55.2500 -106.0833 104° East 270 311 9,000 -1,260 Descending Winnipeg Center
05:04PM 55.2333 -105.9667 104° East 250 288 7,800 -1,020 Descending Winnipeg Center
05:05PM 55.2167 -105.8333 102° East 240 276 7,000 -1,020 Descending Winnipeg Center
05:07PM 55.2018 -105.7212 103° East  Level FlightAware Approximate
05:07PM 55.1833 -105.6333 103° East 210 242 4,900  Level Winnipeg Center
05:08PM 55.1667 -105.5333 106° East 210 242 3,300 -960 Descending Winnipeg Center
05:09PM 55.1833 -105.4500 71° East 180 207 3,000 -300 Descending Winnipeg Center
05:10PM 55.1833 -105.3833 90° East 140 161 2,700 -360 Descending Winnipeg Center
05:11PM 55.1833 -105.3333 90° East 130 150 2,300 -480 Descending Winnipeg Center
05:12PM 55.1667 -105.2667 114° Southeast 120 138 1,800 -600 Descending Winnipeg Center
05:13PM 55.1333 -105.3000 210° Southwest 100 115 1,200 -600 Descending Winnipeg Center